Time;durP1;ratioP1;P1;durP2;ratioP2;P2;SDS_P1;SDS_P2;PMS_P1;PMS_P2;Temp;Humidity;BMP_temperature;BMP_pressure;BME280_temperature;BME280_humidity;BME280_pressure;Samples;Min_cycle;Max_cycle;Signal;HPM_P1;HPM_P2
2022/08/13 00:01:01;;;;;;;14.80;13.20;;;;;;;17.84;71.23;98974.58;88612;1271;22640;-71
2022/08/13 00:03:09;;;;;;;14.70;13.20;;;;;;;17.81;71.35;98969.21;88538;1270;99757;-70
2022/08/13 00:05:11;;;;;;;14.90;12.80;;;;;;;17.83;71.47;98965.73;88498;1271;23019;-70
2022/08/13 00:07:13;;;;;;;20.40;12.90;;;;;;;17.85;71.58;98958.62;88614;1271;22566;-70
2022/08/13 00:09:15;;;;;;;14.60;13.10;;;;;;;17.86;71.57;98956.61;88525;1271;99161;-71
2022/08/13 00:12:56;;;;;;;18.40;13.40;;;;;;;17.86;71.54;98956.58;88609;1271;22623;-71
2022/08/13 00:13:41;;;;;;;14.40;12.00;;;;;;;17.87;71.58;98954.73;88483;1271;22693;-72
2022/08/13 00:15:45;;;;;;;13.80;12.40;;;;;;;17.88;71.59;98955.20;88537;1271;99472;-72
2022/08/13 00:17:51;;;;;;;13.60;12.30;;;;;;;17.86;71.58;98955.86;88821;1271;22607;-71
2022/08/13 00:19:53;;;;;;;14.60;13.10;;;;;;;17.84;71.63;98956.60;87568;1274;22663;-70
2022/08/13 00:21:57;;;;;;;17.40;13.30;;;;;;;17.81;71.75;98957.89;88455;1271;100157;-71
2022/08/13 00:23:59;;;;;;;14.80;12.80;;;;;;;17.79;71.78;98958.05;88553;1271;24233;-71
2022/08/13 00:26:00;;;;;;;14.70;13.30;;;;;;;17.78;71.79;98957.41;88548;1271;22651;-71
2022/08/13 00:28:04;;;;;;;18.30;13.80;;;;;;;17.78;71.84;98956.71;88491;1271;99592;-71
2022/08/13 00:30:08;;;;;;;18.00;13.50;;;;;;;17.77;71.93;98953.97;87668;1271;23003;-70
2022/08/13 00:32:10;;;;;;;14.30;12.80;;;;;;;17.77;72.10;98952.15;87775;1271;22558;-70
2022/08/13 00:34:12;;;;;;;18.00;13.90;;;;;;;17.77;71.89;98945.59;88372;1271;99881;-71
2022/08/13 00:36:15;;;;;;;17.40;13.60;;;;;;;17.76;72.04;98941.41;88549;1271;24001;-72
2022/08/13 00:38:23;;;;;;;15.50;13.90;;;;;;;17.76;72.06;98939.47;88528;1271;22713;-71
2022/08/13 00:40:26;;;;;;;19.10;14.50;;;;;;;17.76;72.17;98933.43;88551;1271;24269;-71
2022/08/13 00:42:28;;;;;;;16.90;14.10;;;;;;;17.76;72.19;98935.70;88584;1271;22557;-71
2022/08/13 00:44:31;;;;;;;15.10;13.50;;;;;;;17.76;72.21;98928.80;87698;1271;1576945;-70
2022/08/13 00:46:34;;;;;;;16.30;14.10;;;;;;;17.74;72.31;98931.04;88623;1271;22549;-69
2022/08/13 00:48:42;;;;;;;16.40;14.20;;;;;;;17.74;72.25;98930.02;88733;1271;23504;-71
2022/08/13 00:50:45;;;;;;;15.50;12.80;;;;;;;17.76;72.41;98930.05;88494;1271;99716;-70
2022/08/13 00:52:49;;;;;;;20.00;13.70;;;;;;;17.79;72.29;98931.04;87608;1271;25631;-70
2022/08/13 00:54:52;;;;;;;15.10;13.60;;;;;;;17.81;72.30;98931.09;88768;1271;25303;-70
2022/08/13 00:56:57;;;;;;;15.90;14.10;;;;;;;17.82;72.39;98930.09;88424;1270;98477;-71
2022/08/13 00:59:07;;;;;;;14.70;13.10;;;;;;;17.84;72.38;98926.73;88532;1271;24179;-71
2022/08/13 01:01:11;;;;;;;14.50;13.00;;;;;;;17.84;72.37;98926.70;88687;1271;22552;-69
2022/08/13 01:03:14;;;;;;;17.20;13.10;;;;;;;17.85;72.45;98923.98;88587;1271;99220;-70
2022/08/13 01:05:17;;;;;;;16.30;12.80;;;;;;;17.85;72.40;98918.80;88581;1271;27012;-71
2022/08/13 01:07:19;;;;;;;16.20;12.90;;;;;;;17.87;72.45;98917.80;88542;1274;22555;-71
2022/08/13 01:09:21;;;;;;;14.60;12.70;;;;;;;17.86;72.40;98909.29;88528;1271;100112;-70
2022/08/13 01:11:24;;;;;;;16.00;14.30;;;;;;;17.86;72.47;98910.92;88602;1271;22578;-70
2022/08/13 01:13:26;;;;;;;14.30;13.00;;;;;;;17.86;72.56;98907.86;88510;1271;24908;-71
2022/08/13 01:15:28;;;;;;;14.40;11.90;;;;;;;17.86;72.55;98897.92;88465;1271;99511;-68
2022/08/13 01:17:30;;;;;;;14.40;12.50;;;;;;;17.86;72.58;98894.94;88511;1271;22677;-71
2022/08/13 01:19:34;;;;;;;13.30;12.00;;;;;;;17.85;72.61;98898.36;88574;1271;24867;-72
2022/08/13 01:21:42;;;;;;;14.60;12.90;;;;;;;17.85;72.73;98894.98;88383;1271;102177;-70
2022/08/13 01:23:46;;;;;;;15.60;13.30;;;;;;;17.85;72.76;98894.12;88527;1271;22587;-70
2022/08/13 01:25:50;;;;;;;14.30;12.90;;;;;;;17.84;72.75;98889.95;88374;1274;22586;-70
2022/08/13 01:27:53;;;;;;;14.40;13.00;;;;;;;17.83;72.72;98887.34;87935;1271;99828;-70
2022/08/13 01:29:56;;;;;;;13.60;12.10;;;;;;;17.81;72.81;98889.23;88524;1271;22578;-71
2022/08/13 01:31:58;;;;;;;15.20;12.50;;;;;;;17.79;72.83;98884.15;88561;1270;24258;-69
2022/08/13 01:34:03;;;;;;;14.40;11.70;;;;;;;17.76;72.77;98880.80;87521;1271;99916;-70
2022/08/13 01:36:07;;;;;;;14.10;12.60;;;;;;;17.75;72.87;98884.41;88659;1271;22712;-70
2022/08/13 01:38:11;;;;;;;14.90;12.40;;;;;;;17.75;72.92;98881.60;88462;1271;24839;-70
2022/08/13 01:40:13;;;;;;;19.60;13.10;;;;;;;17.73;73.03;98882.95;88387;1271;99460;-71
2022/08/13 01:42:20;;;;;;;13.30;11.80;;;;;;;17.72;73.06;98882.85;88548;1271;22796;-71
2022/08/13 01:44:25;;;;;;;15.10;13.20;;;;;;;17.72;73.11;98881.98;88577;1271;22701;-72
2022/08/13 01:50:28;;;;;;;14.40;12.30;;;;;;;17.73;73.12;98884.58;88588;1271;22566;-70
2022/08/13 01:51:18;;;;;;;14.40;12.50;;;;;;;17.72;73.24;98880.95;88469;1271;99245;-70
2022/08/13 01:53:20;;;;;;;13.90;12.50;;;;;;;17.72;73.28;98879.70;88614;1271;22596;-70
2022/08/13 01:55:21;;;;;;;14.40;12.80;;;;;;;17.72;73.37;98882.87;87782;1271;23081;-70
2022/08/13 01:57:23;;;;;;;23.00;12.60;;;;;;;17.73;73.35;98885.16;87533;1271;99429;-71
2022/08/13 01:59:25;;;;;;;15.80;13.90;;;;;;;17.73;73.43;98881.56;87758;1271;22608;-70
2022/08/13 02:01:28;;;;;;;14.60;13.10;;;;;;;17.73;73.42;98882.27;88476;1271;25442;-69
2022/08/13 02:03:30;;;;;;;21.10;13.20;;;;;;;17.74;73.49;98877.83;87597;1271;99400;-70
2022/08/13 02:05:32;;;;;;;18.10;14.00;;;;;;;17.73;73.46;98880.66;87708;1271;22552;-71
2022/08/13 02:07:35;;;;;;;14.60;13.00;;;;;;;17.73;73.54;98881.36;87588;1271;24207;-70
2022/08/13 02:09:41;;;;;;;14.60;13.00;;;;;;;17.74;73.54;98876.32;88554;1271;99956;-70
2022/08/13 02:11:43;;;;;;;18.30;14.20;;;;;;;17.75;73.54;98876.58;88542;1271;23992;-69
2022/08/13 02:13:45;;;;;;;17.00;13.70;;;;;;;17.77;73.65;98867.54;87674;1271;24740;-69
2022/08/13 02:15:48;;;;;;;14.80;13.40;;;;;;;17.79;73.55;98868.45;87913;1270;99413;-70
2022/08/13 02:17:49;;;;;;;14.80;13.40;;;;;;;17.80;73.72;98870.16;88427;1271;22543;-72
2022/08/13 02:19:55;;;;;;;15.30;13.70;;;;;;;17.80;73.69;98872.79;88430;1271;24516;-70
2022/08/13 02:21:58;;;;;;;18.60;14.00;;;;;;;17.80;73.68;98870.56;88505;1271;99358;-69
2022/08/13 02:24:03;;;;;;;15.70;13.70;;;;;;;17.80;73.83;98866.27;88177;1271;25780;-71
2022/08/13 02:26:06;;;;;;;19.60;13.70;;;;;;;17.80;73.86;98870.17;88728;1271;24273;-69
2022/08/13 02:28:10;;;;;;;15.50;13.60;;;;;;;17.79;73.98;98870.58;88489;1271;99497;-70
2022/08/13 02:30:12;;;;;;;15.30;13.90;;;;;;;17.78;73.92;98874.04;87791;1271;22585;-69
2022/08/13 02:32:14;;;;;;;15.70;12.80;;;;;;;17.78;73.91;98872.80;87685;1271;22673;-70
2022/08/13 02:34:16;;;;;;;15.60;14.00;;;;;;;17.77;74.02;98872.17;87547;1271;99637;-70
2022/08/13 02:36:22;;;;;;;17.90;14.20;;;;;;;17.77;73.93;98871.83;87520;1274;22667;-70
2022/08/13 02:38:24;;;;;;;20.20;14.00;;;;;;;17.78;73.99;98870.84;88469;1271;98635;-70
2022/08/13 02:42:45;;;;;;;16.10;14.10;;;;;;;17.78;74.03;98874.41;87756;1271;25398;-69
2022/08/13 02:44:49;;;;;;;20.00;15.50;;;;;;;17.78;74.26;98872.85;87561;1271;100113;-70
2022/08/13 02:46:51;;;;;;;17.70;14.00;;;;;;;17.78;74.21;98874.05;87880;1271;24238;-70
2022/08/13 02:48:52;;;;;;;20.20;15.70;;;;;;;17.77;74.25;98873.96;87625;1271;23414;-70
2022/08/13 02:50:56;;;;;;;16.80;15.10;;;;;;;17.77;74.37;98876.95;88314;1271;99510;-70
2022/08/13 02:52:57;;;;;;;21.00;15.90;;;;;;;17.78;74.30;98871.39;88608;1271;22577;-71
2022/08/13 02:54:59;;;;;;;23.70;14.80;;;;;;;17.78;74.37;98868.54;88565;1271;22719;-71
2022/08/13 02:57:01;;;;;;;18.30;15.80;;;;;;;17.79;74.43;98868.84;88542;1271;99871;-70
2022/08/13 02:59:06;;;;;;;23.50;16.00;;;;;;;17.80;74.40;98868.23;88626;1271;22635;-70
2022/08/13 03:01:10;;;;;;;21.60;15.60;;;;;;;17.80;74.47;98866.26;88579;1271;22710;-70
2022/08/13 03:03:12;;;;;;;19.10;14.90;;;;;;;17.81;74.48;98867.08;88430;1271;99250;-70
2022/08/13 03:05:17;;;;;;;16.50;14.80;;;;;;;17.81;74.47;98861.77;88541;1271;26744;-71
2022/08/13 03:07:19;;;;;;;21.60;15.70;;;;;;;17.81;74.48;98864.05;88543;1271;22773;-70
2022/08/13 03:09:22;;;;;;;19.60;15.20;;;;;;;17.80;74.42;98859.99;87423;1274;99881;-70
2022/08/13 03:11:24;;;;;;;19.90;15.40;;;;;;;17.79;74.61;98857.77;88578;1271;22584;-70
2022/08/13 03:13:29;;;;;;;16.30;14.30;;;;;;;17.78;74.64;98855.37;88550;1271;23635;-70
2022/08/13 03:15:32;;;;;;;18.40;15.40;;;;;;;17.79;74.53;98849.48;88206;1271;99985;-70
2022/08/13 03:17:33;;;;;;;19.00;15.50;;;;;;;17.80;74.63;98842.48;87666;1271;24234;-70
2022/08/13 03:19:35;;;;;;;21.60;15.60;;;;;;;17.79;74.65;98843.57;88500;1271;22545;-70
2022/08/13 03:21:41;;;;;;;18.90;16.00;;;;;;;17.81;74.59;98846.96;88333;1274;99361;-69
2022/08/13 03:23:43;;;;;;;21.60;16.00;;;;;;;17.82;74.66;98845.14;88553;1271;22577;-70
2022/08/13 03:25:45;;;;;;;25.40;17.00;;;;;;;17.81;74.68;98844.98;88588;1271;22640;-70
2022/08/13 03:27:48;;;;;;;25.00;16.20;;;;;;;17.82;74.77;98841.38;88372;1271;99466;-70
2022/08/13 03:29:53;;;;;;;19.30;15.60;;;;;;;17.83;74.68;98840.21;87712;1271;23084;-71
2022/08/13 03:31:54;;;;;;;32.30;17.30;;;;;;;17.85;74.71;98836.36;88586;1271;24429;-70
2022/08/13 03:34:01;;;;;;;29.00;18.10;;;;;;;17.85;74.79;98834.92;87711;1271;99921;-71
2022/08/13 03:36:03;;;;;;;32.10;18.00;;;;;;;17.85;74.82;98833.27;88646;1271;22586;-71
2022/08/13 03:38:08;;;;;;;25.80;18.20;;;;;;;17.85;74.86;98831.92;88675;1271;22549;-71
2022/08/13 03:40:11;;;;;;;36.40;19.20;;;;;;;17.83;74.83;98835.24;88591;1271;99450;-71
2022/08/13 03:42:12;;;;;;;34.60;18.90;;;;;;;17.81;74.97;98834.67;88553;1271;22849;-70
2022/08/13 03:44:14;;;;;;;30.30;19.20;;;;;;;17.81;75.01;98835.98;88552;1271;27684;-71
2022/08/13 03:46:18;;;;;;;34.40;20.00;;;;;;;17.79;75.09;98835.40;88608;1271;99408;-70
2022/08/13 03:48:21;;;;;;;31.50;20.00;;;;;;;17.76;75.23;98835.48;88764;1271;23697;-71
2022/08/13 03:50:23;;;;;;;29.80;19.70;;;;;;;17.75;75.25;98840.20;88730;1271;22903;-71
2022/08/13 03:52:25;;;;;;;34.80;19.50;;;;;;;17.73;75.40;98845.35;88579;1270;99093;-71
2022/08/13 03:54:27;;;;;;;28.80;19.80;;;;;;;17.69;75.46;98846.54;88669;1271;22558;-71
2022/08/13 03:56:28;;;;;;;34.60;20.50;;;;;;;17.65;75.60;98847.19;88501;1271;25372;-70
2022/08/13 03:58:30;;;;;;;30.90;20.70;;;;;;;17.62;75.66;98849.92;88633;1271;99104;-71
2022/08/13 04:00:35;;;;;;;34.20;20.10;;;;;;;17.60;75.79;98852.35;88648;1271;22807;-71
2022/08/13 04:02:40;;;;;;;33.70;21.30;;;;;;;17.59;75.82;98850.55;88361;1271;99480;-70
2022/08/13 04:04:46;;;;;;;31.80;21.30;;;;;;;17.56;75.89;98849.02;88578;1271;22765;-71
2022/08/13 04:06:48;;;;;;;33.00;21.70;;;;;;;17.53;76.09;98850.23;88860;1270;25231;-71
2022/08/13 04:08:50;;;;;;;37.30;22.00;;;;;;;17.52;76.10;98851.75;88597;1271;100982;-71
2022/08/13 04:10:51;;;;;;;40.40;21.50;;;;;;;17.50;76.22;98850.45;88586;1271;23367;-71
2022/08/13 04:12:54;;;;;;;30.10;21.40;;;;;;;17.49;76.22;98850.79;88610;1271;22550;-72
2022/08/13 04:14:55;;;;;;;33.50;20.70;;;;;;;17.48;76.30;98850.84;88514;1271;99546;-71
2022/08/13 04:16:57;;;;;;;30.30;22.70;;;;;;;17.47;76.35;98849.12;88584;1271;24454;-71
2022/08/13 04:19:01;;;;;;;33.70;23.30;;;;;;;17.47;76.39;98848.41;88663;1269;24366;-71
2022/08/13 04:21:06;;;;;;;37.20;21.00;;;;;;;17.47;76.52;98843.76;88392;1274;100003;-71
2022/08/13 04:23:17;;;;;;;34.30;22.00;;;;;;;17.49;76.47;98849.71;88602;1271;22565;-71
2022/08/13 04:25:19;;;;;;;33.30;22.20;;;;;;;17.49;76.54;98847.56;88616;1270;22569;-71
2022/08/13 04:27:20;;;;;;;38.40;23.50;;;;;;;17.49;76.60;98846.45;88522;1271;99598;-71
2022/08/13 04:29:22;;;;;;;41.10;22.70;;;;;;;17.49;76.67;98852.19;88619;1274;22579;-71
2022/08/13 04:31:24;;;;;;;28.60;21.80;;;;;;;17.49;76.66;98847.70;88533;1274;22625;-70
2022/08/13 04:33:26;;;;;;;35.30;23.60;;;;;;;17.50;76.76;98848.73;88445;1274;100578;-72
2022/08/13 04:35:28;;;;;;;40.30;24.10;;;;;;;17.49;76.81;98846.80;88708;1271;22564;-70
2022/08/13 04:37:31;;;;;;;40.80;24.80;;;;;;;17.48;76.87;98844.05;88675;1271;22715;-72
2022/08/13 04:39:33;;;;;;;40.60;24.50;;;;;;;17.47;76.90;98839.67;88616;1271;100216;-71
2022/08/13 04:41:35;;;;;;;43.20;23.80;;;;;;;17.48;76.97;98840.54;88676;1270;22811;-71
2022/08/13 04:43:37;;;;;;;40.60;24.60;;;;;;;17.49;77.06;98840.10;88621;1271;22704;-72
2022/08/13 04:45:40;;;;;;;42.40;25.80;;;;;;;17.49;77.08;98841.66;88501;1271;99428;-72
2022/08/13 04:47:42;;;;;;;42.60;25.20;;;;;;;17.49;77.17;98845.91;88946;1271;25100;-73
2022/08/13 04:49:47;;;;;;;46.90;24.20;;;;;;;17.51;77.03;98846.89;88737;1271;22702;-72
2022/08/13 04:51:49;;;;;;;51.00;27.50;;;;;;;17.51;77.15;98842.07;88585;1274;100833;-73
2022/08/13 04:53:52;;;;;;;51.10;25.10;;;;;;;17.49;77.10;98839.38;88566;1271;25136;-71
2022/08/13 04:55:55;;;;;;;53.40;27.50;;;;;;;17.52;77.29;98845.34;88682;1271;25515;-71
2022/08/13 04:57:58;;;;;;;46.80;27.00;;;;;;;17.54;77.32;98850.57;88552;1271;99675;-71
2022/08/13 05:00:04;;;;;;;55.40;27.60;;;;;;;17.56;77.37;98853.11;88567;1271;24810;-71
2022/08/13 05:02:05;;;;;;;44.10;26.80;;;;;;;17.55;77.40;98850.27;88590;1271;24224;-72
2022/08/13 05:04:07;;;;;;;49.80;26.90;;;;;;;17.57;77.41;98850.55;88530;1271;99327;-72
2022/08/13 05:06:18;;;;;;;59.00;28.20;;;;;;;17.59;77.50;98847.90;88456;1274;22650;-72
2022/08/13 05:08:20;;;;;;;49.10;27.90;;;;;;;17.60;77.55;98847.27;88608;1271;22552;-70
2022/08/13 05:10:22;;;;;;;62.40;29.60;;;;;;;17.61;77.50;98849.48;88490;1271;99240;-71
2022/08/13 05:12:24;;;;;;;59.10;30.10;;;;;;;17.60;77.47;98847.75;88646;1271;24310;-72
2022/08/13 05:14:25;;;;;;;67.40;28.80;;;;;;;17.60;77.52;98846.54;88672;1271;22716;-71
2022/08/13 05:16:27;;;;;;;61.10;27.70;;;;;;;17.60;77.60;98849.05;88470;1271;99510;-72
2022/08/13 05:18:31;;;;;;;51.30;27.90;;;;;;;17.57;77.58;98843.36;88662;1271;23993;-72
2022/08/13 05:20:33;;;;;;;55.50;29.80;;;;;;;17.59;77.66;98846.77;88594;1271;100058;-71
2022/08/13 05:22:34;;;;;;;74.00;30.40;;;;;;;17.58;77.73;98845.28;88643;1271;22556;-72
2022/08/13 05:24:37;;;;;;;59.90;29.80;;;;;;;17.58;77.71;98847.02;88634;1271;23321;-71
2022/08/13 05:26:38;;;;;;;62.40;30.80;;;;;;;17.59;77.80;98846.64;88512;1271;99470;-72
2022/08/13 05:28:40;;;;;;;62.00;28.90;;;;;;;17.58;77.77;98848.95;88646;1271;22638;-72
2022/08/13 05:30:43;;;;;;;66.50;30.20;;;;;;;17.59;77.88;98849.98;88657;1271;22557;-72
2022/08/13 05:32:45;;;;;;;60.30;29.70;;;;;;;17.58;77.84;98848.77;88334;1271;100972;-71
2022/08/13 05:34:48;;;;;;;64.90;31.80;;;;;;;17.57;77.95;98849.43;88341;1271;24332;-72
2022/08/13 05:36:52;;;;;;;72.10;30.50;;;;;;;17.57;78.02;98850.88;88334;1274;22552;-72
2022/08/13 05:38:58;;;;;;;67.60;31.00;;;;;;;17.56;77.95;98843.45;88310;1271;99488;-71
2022/08/13 05:41:03;;;;;;;72.40;32.60;;;;;;;17.57;78.10;98846.95;88533;1271;22607;-71
2022/08/13 05:43:14;;;;;;;65.50;30.90;;;;;;;17.57;78.03;98848.34;88345;1272;22592;-71
2022/08/13 05:45:15;;;;;;;73.60;33.20;;;;;;;17.57;78.08;98844.09;88698;1271;99703;-71
2022/08/13 05:47:17;;;;;;;74.70;31.70;;;;;;;17.57;78.13;98842.68;88495;1271;25385;-71
2022/08/13 05:49:23;;;;;;;71.10;33.30;;;;;;;17.57;78.25;98844.85;88302;1274;22828;-72
2022/08/13 05:51:33;;;;;;;68.20;31.50;;;;;;;17.56;78.28;98844.23;88431;1271;99264;-73
2022/08/13 05:53:36;;;;;;;86.80;32.90;;;;;;;17.53;78.31;98840.10;88453;1271;22626;-72
2022/08/13 05:55:40;;;;;;;72.60;32.30;;;;;;;17.53;78.30;98842.98;88424;1271;23423;-71
2022/08/13 05:57:44;;;;;;;70.80;34.10;;;;;;;17.52;78.37;98840.73;88584;1271;99418;-71
2022/08/13 06:04:27;;;;;;;75.90;34.50;;;;;;;17.53;78.71;98837.85;88308;1271;99791;-71
2022/08/13 06:06:29;;;;;;;79.30;32.20;;;;;;;17.53;78.55;98836.02;88469;1271;23207;-72
2022/08/13 06:08:35;;;;;;;81.70;33.30;;;;;;;17.54;78.62;98835.61;88390;1271;99620;-71
2022/08/13 06:10:36;;;;;;;83.70;33.50;;;;;;;17.56;78.66;98836.00;88308;1274;23534;-71
2022/08/13 06:12:42;;;;;;;69.40;33.10;;;;;;;17.57;78.81;98832.02;88416;1271;24097;-71
2022/08/13 06:14:44;;;;;;;85.90;32.80;;;;;;;17.57;78.75;98832.38;88280;1271;99484;-71
2022/08/13 06:16:46;;;;;;;65.40;30.90;;;;;;;17.59;78.74;98834.91;88393;1271;22580;-70
2022/08/13 06:18:48;;;;;;;62.10;27.90;;;;;;;17.61;78.85;98832.05;88419;1271;24145;-71
2022/08/13 06:20:53;;;;;;;64.20;30.40;;;;;;;17.63;78.77;98834.05;88551;1271;99875;-70
2022/08/13 06:22:56;;;;;;;60.50;30.00;;;;;;;17.65;78.77;98831.59;88383;1271;22553;-71
2022/08/13 06:24:58;;;;;;;62.00;29.40;;;;;;;17.66;78.90;98830.78;88409;1271;22767;-72
2022/08/13 06:27:04;;;;;;;68.10;29.50;;;;;;;17.69;78.88;98833.35;88299;1274;98565;-72
2022/08/13 06:29:07;;;;;;;58.50;27.70;;;;;;;17.70;78.81;98829.52;88485;1271;22571;-72
2022/08/13 06:31:14;;;;;;;60.00;27.40;;;;;;;17.72;78.84;98832.54;88570;1271;22769;-72
2022/08/13 06:33:19;;;;;;;47.80;24.10;;;;;;;17.75;78.98;98827.61;88460;1271;100230;-71
2022/08/13 06:35:21;;;;;;;51.40;25.40;;;;;;;17.77;78.89;98823.33;88619;1271;22821;-73
2022/08/13 06:37:22;;;;;;;56.10;27.20;;;;;;;17.79;78.98;98821.55;88474;1271;23754;-72
2022/08/13 06:39:27;;;;;;;42.10;23.40;;;;;;;17.83;78.95;98822.84;88265;1271;101208;-72
2022/08/13 06:41:34;;;;;;;42.00;20.10;;;;;;;17.87;79.01;98819.98;88680;1271;23414;-73
2022/08/13 06:43:49;;;;;;;39.30;20.00;;;;;;;17.91;79.02;98823.13;88677;1271;24276;-72
2022/08/13 06:45:50;;;;;;;36.10;20.70;;;;;;;17.92;78.97;98824.31;88411;1271;99758;-72
2022/08/13 06:47:53;;;;;;;39.40;20.30;;;;;;;17.95;78.87;98821.02;88447;1271;22708;-72
2022/08/13 06:49:55;;;;;;;28.50;17.80;;;;;;;17.98;78.92;98817.41;88602;1271;22683;-72
2022/08/13 06:51:58;;;;;;;38.50;19.90;;;;;;;18.00;79.04;98815.13;88444;1271;99482;-72
2022/08/13 06:53:59;;;;;;;33.10;18.90;;;;;;;18.03;78.88;98816.11;88392;1271;22572;-73
2022/08/13 06:56:04;;;;;;;27.60;17.30;;;;;;;18.06;78.97;98812.63;88480;1271;24345;-75
2022/08/13 06:58:09;;;;;;;29.80;17.30;;;;;;;18.07;78.96;98814.66;88434;1271;99491;-73
2022/08/13 07:00:11;;;;;;;27.20;16.50;;;;;;;18.10;78.94;98816.41;88359;1271;24459;-72
2022/08/13 07:02:17;;;;;;;22.20;15.20;;;;;;;18.11;78.85;98813.86;88271;1271;22616;-72
2022/08/13 07:04:20;;;;;;;28.50;16.60;;;;;;;18.12;78.97;98817.51;88303;1271;100477;-73
2022/08/13 07:06:26;;;;;;;28.30;16.80;;;;;;;18.12;78.89;98820.00;88317;1271;22556;-72
2022/08/13 07:08:30;;;;;;;25.60;16.80;;;;;;;18.13;78.90;98819.49;88442;1271;24116;-73
2022/08/13 07:10:33;;;;;;;35.30;17.40;;;;;;;18.15;78.80;98817.58;88365;1271;22750;-73
2022/08/13 07:12:34;;;;;;;33.90;17.00;;;;;;;18.19;78.82;98820.67;88339;1271;24408;-73
2022/08/13 07:14:36;;;;;;;25.50;17.30;;;;;;;18.22;78.91;98822.19;88261;1274;100240;-71
2022/08/13 07:16:39;;;;;;;29.50;16.60;;;;;;;18.24;78.94;98820.95;88482;1271;22711;-73
2022/08/13 07:18:41;;;;;;;30.30;17.90;;;;;;;18.26;78.91;98824.37;88577;1271;22662;-72
2022/08/13 07:20:43;;;;;;;28.10;16.50;;;;;;;18.26;79.01;98825.06;88255;1274;100063;-75
2022/08/13 07:22:45;;;;;;;33.40;17.10;;;;;;;18.26;78.80;98825.45;88414;1271;24119;-73
2022/08/13 07:24:49;;;;;;;28.20;18.30;;;;;;;18.28;78.87;98830.61;88526;1271;25328;-72
2022/08/13 07:26:51;;;;;;;31.70;16.30;;;;;;;18.28;78.88;98827.04;88291;1271;99424;-73
2022/08/13 07:28:53;;;;;;;30.00;15.90;;;;;;;18.28;78.82;98827.27;88371;1271;22565;-71
2022/08/13 07:30:57;;;;;;;25.30;16.50;;;;;;;18.28;78.70;98830.44;88428;1271;22601;-73
2022/08/13 07:33:01;;;;;;;26.80;16.70;;;;;;;18.27;78.78;98826.63;88398;1273;100561;-73
2022/08/13 07:35:04;;;;;;;29.10;16.30;;;;;;;18.26;78.95;98827.79;88645;1271;22552;-72
2022/08/13 07:37:06;;;;;;;29.50;15.80;;;;;;;18.23;78.94;98828.31;88436;1271;25495;-71
2022/08/13 07:39:11;;;;;;;33.80;17.00;;;;;;;18.21;78.97;98826.34;88519;1273;99419;-73
2022/08/13 07:41:14;;;;;;;30.70;18.00;;;;;;;18.20;78.99;98828.41;89718;1271;22559;-71
2022/08/13 07:43:22;;;;;;;27.80;15.30;;;;;;;18.19;79.20;98831.09;88446;1271;22584;-72
2022/08/13 07:45:23;;;;;;;26.30;15.50;;;;;;;18.17;79.23;98827.40;88589;1271;99526;-72
2022/08/13 07:47:26;;;;;;;31.70;16.60;;;;;;;18.15;79.36;98825.63;88791;1271;23435;-72
2022/08/13 07:49:29;;;;;;;29.20;18.00;;;;;;;18.14;79.36;98827.31;88843;1274;22673;-72
2022/08/13 07:51:31;;;;;;;32.00;16.50;;;;;;;18.13;79.49;98824.46;88559;1270;100630;-72
2022/08/13 07:53:35;;;;;;;27.40;17.20;;;;;;;18.14;79.55;98829.37;88912;1271;22558;-72
2022/08/13 07:55:37;;;;;;;31.40;16.30;;;;;;;18.16;79.59;98827.33;89667;1271;22703;-72
2022/08/13 07:57:43;;;;;;;29.50;15.90;;;;;;;18.16;79.54;98828.31;88582;1271;100021;-72
2022/08/13 07:59:44;;;;;;;29.90;15.90;;;;;;;18.18;79.62;98827.10;88578;1271;24778;-72
2022/08/13 08:01:53;;;;;;;27.20;15.30;;;;;;;18.20;79.58;98829.46;88478;1271;24852;-72
2022/08/13 08:04:01;;;;;;;21.90;14.10;;;;;;;18.20;79.76;98832.42;88470;1271;99861;-73
2022/08/13 08:06:03;;;;;;;25.90;13.80;;;;;;;18.21;79.95;98831.86;88499;1271;22598;-71
2022/08/13 08:08:05;;;;;;;21.00;13.90;;;;;;;18.21;79.96;98827.38;88350;1274;22623;-72
2022/08/13 08:10:08;;;;;;;18.60;12.50;;;;;;;18.24;79.92;98828.29;88423;1271;100599;-72
2022/08/13 08:14:30;;;;;;;18.70;12.50;;;;;;;18.27;80.08;98825.38;88455;1271;22567;-72
2022/08/13 08:16:36;;;;;;;15.40;11.80;;;;;;;18.28;79.99;98823.65;88460;1271;26335;-75
2022/08/13 08:18:37;;;;;;;23.90;12.30;;;;;;;18.29;80.21;98822.86;88617;1271;23305;-72
2022/08/13 08:20:42;;;;;;;18.30;12.10;;;;;;;18.28;80.10;98818.31;88480;1271;100487;-73
2022/08/13 08:22:45;;;;;;;16.90;11.10;;;;;;;18.33;80.15;98812.95;88567;1271;23240;-72
2022/08/13 08:24:49;;;;;;;21.80;12.20;;;;;;;18.38;80.17;98810.73;88422;1271;22544;-72
2022/08/13 08:26:55;;;;;;;17.90;11.60;;;;;;;18.45;80.35;98810.84;88517;1272;99817;-72
2022/08/13 08:29:00;;;;;;;21.10;13.30;;;;;;;18.55;80.27;98809.11;88488;1271;22604;-71
2022/08/13 08:31:06;;;;;;;23.40;13.20;;;;;;;18.63;80.17;98808.63;88550;1271;25401;-72
2022/08/13 08:33:10;;;;;;;20.50;12.20;;;;;;;18.72;80.14;98806.26;88309;1274;100487;-73
2022/08/13 08:35:12;;;;;;;19.00;12.30;;;;;;;18.82;80.18;98804.41;88426;1271;22626;-73
2022/08/13 08:42:35;;;;;;;16.80;12.60;;;;;;;18.87;80.02;98799.69;88428;1274;22562;-72
2022/08/13 08:42:35;;;;;;;18.50;11.90;;;;;;;18.92;79.89;98802.52;88596;1270;24149;-72
2022/08/13 08:44:37;;;;;;;20.50;13.30;;;;;;;18.94;80.03;98799.29;88545;1271;101227;-72
2022/08/13 08:46:39;;;;;;;20.20;13.00;;;;;;;18.94;79.92;98799.35;88481;1274;22612;-72
2022/08/13 08:48:42;;;;;;;27.40;12.70;;;;;;;18.93;79.94;98798.30;88491;1271;24137;-71
2022/08/13 08:50:43;;;;;;;16.60;13.00;;;;;;;18.95;79.79;98787.48;88280;1271;102525;-72
2022/08/13 08:55:10;;;;;;;17.10;14.00;;;;;;;19.07;79.96;98789.06;88527;1271;25470;-72
2022/08/13 08:57:12;;;;;;;20.40;15.10;;;;;;;19.14;80.02;98783.16;88404;1271;98675;-70
2022/08/13 08:59:15;;;;;;;18.70;13.70;;;;;;;19.25;80.00;98786.11;88962;1271;24326;-72
2022/08/13 09:01:21;;;;;;;20.30;13.90;;;;;;;19.35;80.02;98780.84;88671;1271;23114;-72
2022/08/13 09:03:24;;;;;;;17.90;14.00;;;;;;;19.48;80.02;98778.05;88349;1271;99296;-73
2022/08/13 09:05:26;;;;;;;15.50;12.90;;;;;;;19.61;79.80;98771.27;88413;1271;22844;-72
2022/08/13 09:07:29;;;;;;;20.40;13.50;;;;;;;19.68;79.53;98769.71;88383;1274;22568;-73
2022/08/13 09:09:30;;;;;;;18.20;12.40;;;;;;;19.74;79.41;98773.23;88154;1274;99524;-72
2022/08/13 09:11:35;;;;;;;20.50;12.70;;;;;;;19.79;79.32;98773.38;88465;1271;23859;-72
2022/08/13 09:13:37;;;;;;;17.80;12.10;;;;;;;19.83;79.11;98769.97;88468;1271;22717;-73
2022/08/13 09:15:40;;;;;;;15.30;11.30;;;;;;;19.86;78.98;98771.86;88321;1271;98108;-72
2022/08/13 09:17:43;;;;;;;13.00;11.60;;;;;;;19.88;78.88;98770.20;88427;1271;24269;-72
2022/08/13 09:19:45;;;;;;;12.80;11.30;;;;;;;19.93;78.98;98764.84;88353;1271;25337;-73
2022/08/13 09:21:49;;;;;;;18.80;12.40;;;;;;;19.96;78.92;98767.09;88431;1271;99281;-73
2022/08/13 09:23:51;;;;;;;14.00;12.00;;;;;;;19.94;78.77;98764.73;88916;1271;22545;-73
2022/08/13 09:25:53;;;;;;;14.30;11.30;;;;;;;19.91;78.59;98763.61;88844;1271;24335;-73
2022/08/13 09:27:55;;;;;;;13.60;11.60;;;;;;;19.87;78.71;98763.17;88606;1271;98550;-73
2022/08/13 09:29:58;;;;;;;13.90;11.40;;;;;;;19.86;78.63;98767.71;88623;1271;22662;-74
2022/08/13 09:32:05;;;;;;;18.00;12.90;;;;;;;19.85;78.63;98767.98;88632;1271;24477;-73
2022/08/13 09:34:08;;;;;;;19.90;13.90;;;;;;;19.87;78.69;98770.37;88969;1271;99737;-73
2022/08/13 09:36:10;;;;;;;17.30;12.60;;;;;;;19.89;78.74;98770.34;88707;1273;25952;-74
2022/08/13 09:38:11;;;;;;;15.80;13.20;;;;;;;19.89;78.84;98769.56;88719;1271;25393;-73
2022/08/13 09:40:14;;;;;;;16.80;14.10;;;;;;;19.88;78.92;98766.85;88319;1272;99356;-71
2022/08/13 09:42:25;;;;;;;17.70;12.80;;;;;;;19.88;78.93;98766.34;88571;1274;22628;-72
2022/08/13 09:44:27;;;;;;;16.50;12.90;;;;;;;19.88;78.89;98764.35;88344;1271;22564;-72